Tuesday, July 17, 2018, 1:47 AM EDT
Back to Local

KOKV, Winchester Regional

Location: Winchester, VA, United States Lat: 39.15
Local Time: 1:47 AM EDT ( 5:47 GMT) Lon: -78.15
Time Zone: US/Eastern Elev: 728 ft

Show me the last for .
Show Coded

Time T Td Feel RH Dir Speed Gust Alt SLP Vis Weather Sky Remarks
2018-07-17 01:35 73 66 77 78 230° 7 - 29.94 - 10 CLR None
2018-07-17 01:15 73 66 77 78 240° 8 - 29.95 - 10 CLR None
2018-07-17 00:55 73 66 77 78 230° 6 - 29.95 - 10 CLR None
2018-07-17 00:35 73 68 77 83 230° 6 - 29.95 - 10 CLR None
2018-07-17 00:15 73 68 77 83 230° 5 - 29.95 - 10 CLR None
2018-07-16 23:55 73 68 77 83 230° 3 - 29.96 - 10 CLR None
2018-07-16 23:35 73 70 77 88 210° 3 - 29.95 - 10 CLR None
2018-07-16 23:15 75 70 79 83 210° 3 - 29.95 - 10 CLR None
2018-07-16 22:55 75 68 79 78 210° 5 - 29.96 - 10 CLR None
2018-07-16 22:35 77 70 81 78 210° 5 - 29.95 - 10 CLR None
2018-07-16 22:15 77 70 81 78 210° 6 - 29.96 - 10 CLR None
2018-07-16 21:55 75 70 79 83 200° 5 - 29.96 - 10 CLR None
2018-07-16 21:35 77 70 81 78 170° 5 - 29.95 - 10 CLR None
2018-07-16 21:15 75 70 79 83 160° 3 - 29.95 - 10 CLR None
2018-07-16 20:55 77 70 81 78 160° 5 - 29.94 - 10 CLR None
2018-07-16 20:35 79 70 83 74 200° 3 - 29.94 - 10 CLR None
2018-07-16 20:15 79 72 83 78 - Calm - 29.94 - 10 CLR None
2018-07-16 19:55 81 72 85 74 160° 6 - 29.95 - 10 CLR None
2018-07-16 19:35 81 72 85 74 170° 3 - 29.95 - 10 CLR None
2018-07-16 19:15 81 70 85 69 - Calm - 29.95 - 10 CLR None
2018-07-16 18:55 81 70 85 69 210° 3 - 29.95 - 10 CLR None
2018-07-16 18:35 81 70 85 69 190° 5 - 29.95 - 10 CLR None
2018-07-16 18:15 81 70 85 69 210° 6 - 29.95 - 10 CLR None
2018-07-16 17:55 82 70 87 65 180° 9 - 29.94 - 10 CLR None
2018-07-16 17:35 86 72 92 62 180° 12 - 29.95 - 10 CLR None
2018-07-16 17:15 86 68 90 55 170° 12 - 29.95 - 10 CLR None
2018-07-16 16:35 88 70 93 55 150° 6 - 29.96 - 10 CLR None
2018-07-16 16:15 86 70 91 58 160° 7 - 29.97 - 10 CLR None
2018-07-16 15:55 86 70 91 58 140° 7 - 29.96 - 10 CLR None
2018-07-16 15:35 86 70 91 58 160° 7 - 29.97 - 10 SCT043 SCT065 None
2018-07-16 15:15 86 72 92 62 170° 14 - 29.98 - 10 SCT043 SCT048 BKN065 None
2018-07-16 14:55 88 70 93 55 130° 7 - 29.98 - 10 CLR None
2018-07-16 14:35 88 70 93 55 170° 5 - 29.99 - 10 CLR None
2018-07-16 14:15 86 68 90 55 130° 3 - 30.00 - 10 CLR None
2018-07-16 13:55 86 68 90 55 - Calm - 30.01 - 10 CLR None
2018-07-16 13:35 86 70 91 58 150° 5 - 30.01 - 10 CLR None
2018-07-16 13:15 86 70 91 58 160° 3 - 30.02 - 10 SCT039 None
2018-07-16 12:55 84 70 89 62 - Calm - 30.03 - 10 CLR None
2018-07-16 12:35 84 68 88 58 - Calm - 30.03 - 10 CLR None
2018-07-16 12:15 84 68 88 58 190° 5 - 30.03 - 10 CLR None
2018-07-16 11:55 82 68 86 61 - Calm - 30.03 - 10 CLR None
2018-07-16 11:35 82 66 85 58 - Calm - 30.03 - 10 CLR None
2018-07-16 11:15 81 70 85 69 - Calm - 30.04 - 10 CLR None
2018-07-16 10:55 81 72 85 74 - Calm - 30.04 - 10 CLR None
2018-07-16 10:35 79 72 83 78 - Calm - 30.05 - 10 CLR None
2018-07-16 10:15 77 70 81 78 - Calm - 30.05 - 10 CLR None
2018-07-16 09:55 77 70 81 78 - Calm - 30.05 - 10 CLR None
2018-07-16 09:35 75 70 79 83 210° 5 - 30.05 - 10 CLR None
2018-07-16 09:15 73 70 77 88 230° 6 - 30.05 - 10 CLR None
2018-07-16 08:55 73 70 77 88 220° 5 - 30.05 - 10 CLR None
2018-07-16 08:35 72 70 76 94 220° 3 - 30.05 - 7 CLR None
2018-07-16 08:15 70 68 - 94 210° 3 - 30.05 - 7 CLR None
2018-07-16 07:55 68 68 - 100 - Calm - 30.05 - 5 BR CLR None
2018-07-16 07:35 68 68 - 100 - Calm - 30.05 - 3 BR SCT004 None
2018-07-16 07:15 68 66 - 93 - Calm - 30.05 - 2 BR BKN002 None
2018-07-16 06:55 66 64 - 93 - Calm - 30.05 - 1 BR SCT002 None
2018-07-16 06:35 64 64 - 100 - Calm - 30.05 - 1 BR VV007 None
2018-07-16 06:15 64 64 - 100 - Calm - 30.04 - 0 FG VV002 None
2018-07-16 05:55 63 63 - 100 - Calm - 30.04 - 0 BR VV005 None
2018-07-16 05:35 64 64 - 100 - Calm - 30.04 - 3 BR CLR None
2018-07-16 05:15 64 64 - 100 - Calm - 30.03 - 5 BR CLR None
2018-07-16 04:55 64 64 - 100 - Calm - 30.03 - 3 BR CLR None
2018-07-16 04:35 64 64 - 100 - Calm - 30.03 - 3 BR CLR None
2018-07-16 04:15 64 64 - 100 - Calm - 30.03 - 3 BR CLR None
2018-07-16 03:55 66 64 - 93 - Calm - 30.04 - 7 CLR None
2018-07-16 03:35 64 64 - 100 - Calm - 30.04 - 5 BR CLR None
2018-07-16 03:15 64 64 - 100 180° 3 - 30.05 - 4 BR CLR None
2018-07-16 02:55 64 64 - 100 - Calm - 30.05 - 2 BR CLR None
2018-07-16 02:35 64 64 - 100 - Calm - 30.05 - 2 BR CLR Variable visibility
2018-07-16 02:15 64 64 - 100 - Calm - 30.05 - 3 BR CLR None
2018-07-16 01:55 66 66 - 100 - Calm - 30.05 - 4 BR CLR None

Support USWX by starting your Amazon purchase here.